createdAt,value
2017-01-08T00:01:06.440Z,0
2017-01-08T00:02:15.944Z,0
2017-01-08T00:03:26.463Z,0
2017-01-08T00:04:35.598Z,0
2017-01-08T00:05:44.578Z,0
2017-01-08T00:06:53.571Z,0
2017-01-08T00:08:02.555Z,0
2017-01-08T00:09:11.566Z,0
2017-01-08T00:10:20.550Z,0
2017-01-08T00:11:29.547Z,0
2017-01-08T00:12:38.525Z,0
2017-01-08T00:13:47.508Z,0
2017-01-08T00:14:56.585Z,0
2017-01-08T00:16:05.723Z,0
2017-01-08T00:17:14.703Z,0
2017-01-08T00:18:23.679Z,0
2017-01-08T00:19:32.658Z,0
2017-01-08T00:20:41.639Z,0
2017-01-08T00:21:50.799Z,0
2017-01-08T00:22:59.779Z,0
2017-01-08T00:24:08.763Z,0
2017-01-08T00:25:18.085Z,0
2017-01-08T00:26:27.895Z,0
2017-01-08T00:27:37.525Z,0
2017-01-08T00:28:46.868Z,0
2017-01-08T00:29:56.194Z,0
2017-01-08T00:31:05.835Z,0
2017-01-08T00:32:15.750Z,0
2017-01-08T00:33:24.978Z,0
2017-01-08T00:34:38.505Z,0
2017-01-08T00:35:49.308Z,0
2017-01-08T00:37:00.118Z,0
2017-01-08T00:38:10.080Z,0
2017-01-08T00:39:19.702Z,0
2017-01-08T00:40:28.974Z,0
2017-01-08T00:41:38.492Z,0
2017-01-08T00:42:48.650Z,0
2017-01-08T00:43:58.080Z,0
2017-01-08T00:45:08.262Z,0
2017-01-08T00:46:18.183Z,0
2017-01-08T00:47:27.833Z,0
2017-01-08T00:48:37.370Z,0
2017-01-08T00:49:46.358Z,0
2017-01-08T00:50:55.337Z,0
2017-01-08T00:52:05.260Z,0
2017-01-08T00:53:15.490Z,0
2017-01-08T00:54:25.199Z,0
2017-01-08T00:55:34.893Z,0
2017-01-08T00:56:45.296Z,0
2017-01-08T00:57:54.626Z,0
2017-01-08T00:59:04.549Z,0
2017-01-08T01:00:14.003Z,0
2017-01-08T01:01:23.285Z,0
2017-01-08T01:02:32.566Z,0
2017-01-08T01:03:41.546Z,0
2017-01-08T01:04:50.523Z,0
2017-01-08T01:05:59.504Z,0
2017-01-08T01:07:08.490Z,0
2017-01-08T01:08:17.472Z,0
2017-01-08T01:09:26.453Z,0
2017-01-08T01:10:35.791Z,0
2017-01-08T01:11:44.880Z,0
2017-01-08T01:12:54.373Z,0
2017-01-08T01:14:04.069Z,0
2017-01-08T01:15:13.363Z,0
2017-01-08T01:16:22.345Z,0
2017-01-08T01:17:31.996Z,0
2017-01-08T01:18:41.253Z,0
2017-01-08T01:19:50.568Z,0
2017-01-08T01:21:00.373Z,0
2017-01-08T01:22:11.871Z,0
2017-01-08T01:23:22.047Z,0
2017-01-08T01:24:31.243Z,0
2017-01-08T01:25:41.046Z,0
2017-01-08T01:26:50.923Z,0
2017-01-08T01:28:00.209Z,0
2017-01-08T01:29:09.461Z,0
2017-01-08T01:30:18.683Z,0
2017-01-08T01:31:28.019Z,0
2017-01-08T01:32:37.184Z,0
2017-01-08T01:33:46.394Z,0
2017-01-08T01:34:55.425Z,0
2017-01-08T01:36:05.016Z,0
2017-01-08T01:37:14.786Z,0
2017-01-08T01:38:23.777Z,0
2017-01-08T01:39:33.411Z,0
2017-01-08T01:40:42.622Z,0
2017-01-08T01:41:51.640Z,0
2017-01-08T01:43:00.627Z,0
2017-01-08T01:44:09.610Z,0
2017-01-08T01:45:18.593Z,0
2017-01-08T01:46:27.576Z,0
2017-01-08T01:47:36.557Z,0
2017-01-08T01:48:45.537Z,0
2017-01-08T01:49:54.520Z,0
2017-01-08T01:51:03.506Z,0
2017-01-08T01:52:12.485Z,0
2017-01-08T01:53:21.476Z,0
2017-01-08T01:54:30.455Z,0
2017-01-08T01:55:39.437Z,0
2017-01-08T01:56:48.424Z,0
2017-01-08T01:57:57.400Z,0
2017-01-08T01:59:06.381Z,0
2017-01-08T02:00:15.362Z,0
2017-01-08T02:01:24.362Z,0
2017-01-08T02:02:33.343Z,0
2017-01-08T02:03:42.325Z,0
2017-01-08T02:04:51.305Z,0
2017-01-08T02:06:00.329Z,0
2017-01-08T02:07:09.314Z,0
2017-01-08T02:08:18.835Z,0
2017-01-08T02:09:27.948Z,0
2017-01-08T02:10:36.966Z,0
2017-01-08T02:11:47.179Z,0
2017-01-08T02:12:56.157Z,0
2017-01-08T02:14:05.141Z,0
2017-01-08T02:15:14.120Z,0
2017-01-08T02:16:23.104Z,0
2017-01-08T02:17:32.086Z,0
2017-01-08T02:18:41.666Z,0
2017-01-08T02:19:50.649Z,0
2017-01-08T02:21:00.316Z,0
2017-01-08T02:22:10.012Z,0
2017-01-08T02:23:19.722Z,0
2017-01-08T02:24:29.899Z,0
2017-01-08T02:25:39.801Z,0
2017-01-08T02:26:48.782Z,0
2017-01-08T02:27:57.775Z,0
2017-01-08T02:29:07.646Z,0
2017-01-08T02:30:17.955Z,0
2017-01-08T02:31:28.261Z,0
2017-01-08T02:32:37.239Z,0
2017-01-08T02:33:47.112Z,0
2017-01-08T02:34:57.007Z,0
2017-01-08T02:36:07.246Z,0
2017-01-08T02:37:17.891Z,0
2017-01-08T02:38:28.629Z,0
2017-01-08T02:39:39.975Z,0
2017-01-08T02:40:49.271Z,0
2017-01-08T02:41:58.903Z,0
2017-01-08T02:43:07.891Z,0
2017-01-08T02:44:17.686Z,0
2017-01-08T02:45:27.605Z,0
2017-01-08T02:46:37.763Z,0
2017-01-08T02:47:49.288Z,0
2017-01-08T02:48:58.875Z,0
2017-01-08T02:50:09.756Z,0
2017-01-08T02:51:19.355Z,0
2017-01-08T02:52:30.142Z,0
2017-01-08T02:53:39.123Z,0
2017-01-08T02:54:51.116Z,0
2017-01-08T02:56:01.154Z,0
2017-01-08T02:57:12.112Z,0
2017-01-08T02:58:24.561Z,0
2017-01-08T02:59:34.616Z,0
2017-01-08T03:00:45.715Z,0
2017-01-08T03:01:58.173Z,0
2017-01-08T03:03:08.316Z,0
2017-01-08T03:04:19.152Z,0
2017-01-08T03:05:30.263Z,0
2017-01-08T03:06:39.247Z,0
2017-01-08T03:07:50.524Z,0
2017-01-08T03:09:00.468Z,0
2017-01-08T03:10:11.535Z,0
2017-01-08T03:11:24.066Z,0
2017-01-08T03:12:34.163Z,0
2017-01-08T03:13:44.815Z,0
2017-01-08T03:14:57.578Z,0
2017-01-08T03:16:07.741Z,0
2017-01-08T03:17:18.695Z,0
2017-01-08T03:18:31.149Z,0
2017-01-08T03:19:41.477Z,0
2017-01-08T03:20:52.374Z,0
2017-01-08T03:22:04.748Z,0
2017-01-08T03:23:15.022Z,0
2017-01-08T03:24:25.789Z,0
2017-01-08T03:25:38.192Z,0
2017-01-08T03:26:48.498Z,0
2017-01-08T03:27:59.181Z,0
2017-01-08T03:29:11.814Z,0
2017-01-08T03:30:22.177Z,0
2017-01-08T03:31:32.797Z,0
2017-01-08T03:32:45.428Z,0
2017-01-08T03:33:55.860Z,0
2017-01-08T03:35:07.473Z,0
2017-01-08T03:36:20.406Z,0
2017-01-08T03:37:31.407Z,0
2017-01-08T03:38:43.067Z,0
2017-01-08T03:39:52.854Z,0
2017-01-08T03:41:03.270Z,0
2017-01-08T03:42:13.969Z,0
2017-01-08T03:43:24.224Z,0
2017-01-08T03:44:34.272Z,0
2017-01-08T03:45:47.574Z,0
2017-01-08T03:47:00.571Z,0
2017-01-08T03:48:09.552Z,0
2017-01-08T03:49:20.217Z,0
2017-01-08T03:50:33.964Z,0
2017-01-08T03:51:48.608Z,0
2017-01-08T03:53:03.871Z,0
2017-01-08T03:54:17.019Z,0
2017-01-08T03:55:29.193Z,0
2017-01-08T03:56:40.951Z,0
2017-01-08T03:57:52.554Z,0
2017-01-08T03:59:06.884Z,0
2017-01-08T04:00:17.692Z,0
2017-01-08T04:01:31.634Z,0
2017-01-08T04:02:44.744Z,0
2017-01-08T04:03:58.369Z,0
2017-01-08T04:05:07.348Z,0
2017-01-08T04:06:16.334Z,0
2017-01-08T04:07:25.325Z,0
2017-01-08T04:08:34.309Z,0
2017-01-08T04:09:43.293Z,0
2017-01-08T04:10:52.274Z,0
2017-01-08T04:12:01.278Z,0
2017-01-08T04:13:10.259Z,0
2017-01-08T04:14:19.289Z,0
2017-01-08T04:15:28.274Z,0
2017-01-08T04:16:37.251Z,0
2017-01-08T04:17:46.235Z,0
2017-01-08T04:18:55.221Z,0
2017-01-08T04:20:04.206Z,0
2017-01-08T04:21:13.195Z,0
2017-01-08T04:22:22.173Z,0
2017-01-08T04:23:31.149Z,0
2017-01-08T04:24:40.162Z,0
2017-01-08T04:25:49.138Z,0
2017-01-08T04:26:58.121Z,0
2017-01-08T04:28:07.103Z,0
2017-01-08T04:29:16.093Z,0
2017-01-08T04:30:25.077Z,0
2017-01-08T04:31:34.058Z,0
2017-01-08T04:32:43.043Z,0
2017-01-08T04:33:52.021Z,0
2017-01-08T04:35:00.998Z,0
2017-01-08T04:36:09.983Z,0
2017-01-08T04:37:18.971Z,0
2017-01-08T04:38:27.960Z,0
2017-01-08T04:39:36.935Z,0
2017-01-08T04:40:45.916Z,0
2017-01-08T04:41:54.899Z,0
2017-01-08T04:43:03.888Z,0
2017-01-08T04:44:12.870Z,0
2017-01-08T04:45:21.852Z,0
2017-01-08T04:46:30.833Z,0
2017-01-08T04:47:39.817Z,0
2017-01-08T04:48:48.799Z,0
2017-01-08T04:49:57.780Z,0
2017-01-08T04:51:06.755Z,0
2017-01-08T04:52:15.735Z,0
2017-01-08T04:53:24.716Z,0
2017-01-08T04:54:33.704Z,0
2017-01-08T04:55:42.706Z,0
2017-01-08T04:56:51.689Z,0
2017-01-08T04:58:00.669Z,0
2017-01-08T04:59:09.649Z,0
2017-01-08T05:00:18.635Z,0
2017-01-08T05:01:27.617Z,0
2017-01-08T05:02:36.602Z,0
2017-01-08T05:03:45.581Z,0
2017-01-08T05:04:54.559Z,0
2017-01-08T05:06:03.539Z,0
2017-01-08T05:07:12.519Z,0
2017-01-08T05:08:21.523Z,0
2017-01-08T05:09:30.512Z,0
2017-01-08T05:10:39.496Z,0
2017-01-08T05:11:48.483Z,0
2017-01-08T05:12:57.458Z,0
2017-01-08T05:14:06.476Z,0
2017-01-08T05:15:15.460Z,0
2017-01-08T05:16:24.438Z,0
2017-01-08T05:17:33.421Z,0
2017-01-08T05:18:42.400Z,0
2017-01-08T05:19:51.383Z,0
2017-01-08T05:21:00.368Z,0
2017-01-08T05:22:09.352Z,0
2017-01-08T05:23:18.339Z,0
2017-01-08T05:24:27.317Z,0
2017-01-08T05:25:36.300Z,0
2017-01-08T05:26:45.283Z,0
2017-01-08T05:27:54.269Z,0
2017-01-08T05:29:03.246Z,0
2017-01-08T05:30:12.230Z,0
2017-01-08T05:31:21.212Z,0
2017-01-08T05:32:30.188Z,0
2017-01-08T05:33:39.169Z,0
2017-01-08T05:34:48.153Z,0
2017-01-08T05:35:57.140Z,0
2017-01-08T05:37:06.124Z,0
2017-01-08T05:38:15.105Z,0
2017-01-08T05:39:24.086Z,0
2017-01-08T05:40:33.064Z,0
2017-01-08T05:41:42.046Z,0
2017-01-08T05:42:51.036Z,0
2017-01-08T05:44:00.014Z,0
2017-01-08T05:45:09.000Z,0
2017-01-08T05:46:17.981Z,0
2017-01-08T05:47:26.962Z,0
2017-01-08T05:48:35.943Z,0
2017-01-08T05:49:44.924Z,0
2017-01-08T05:50:53.905Z,0
2017-01-08T05:52:02.884Z,0
2017-01-08T05:53:11.867Z,0
2017-01-08T05:54:20.848Z,0
2017-01-08T05:55:29.829Z,0
2017-01-08T05:56:38.814Z,0
2017-01-08T05:57:47.792Z,0
2017-01-08T05:58:56.772Z,0
2017-01-08T06:00:05.757Z,0
2017-01-08T06:01:14.736Z,0
2017-01-08T06:02:23.712Z,0
2017-01-08T06:03:32.698Z,0
2017-01-08T06:04:41.682Z,0
2017-01-08T06:05:50.660Z,0
2017-01-08T06:06:59.643Z,0
2017-01-08T06:08:08.625Z,0
2017-01-08T06:09:17.613Z,0
2017-01-08T06:10:26.592Z,0
2017-01-08T06:11:35.574Z,0
2017-01-08T06:12:44.556Z,0
2017-01-08T06:13:53.539Z,0
2017-01-08T06:15:02.515Z,0
2017-01-08T06:16:11.496Z,0
2017-01-08T06:17:20.499Z,0
2017-01-08T06:18:29.482Z,0
2017-01-08T06:19:38.461Z,0
2017-01-08T06:20:47.468Z,0
2017-01-08T06:21:56.447Z,0
2017-01-08T06:23:05.426Z,0
2017-01-08T06:24:14.407Z,0
2017-01-08T06:25:23.385Z,0
2017-01-08T06:26:32.377Z,0
2017-01-08T06:27:41.367Z,0
2017-01-08T06:28:50.347Z,0
2017-01-08T06:29:59.328Z,0
2017-01-08T06:31:08.307Z,0
2017-01-08T06:32:17.288Z,0
2017-01-08T06:33:26.265Z,0
2017-01-08T06:34:35.252Z,0
2017-01-08T06:35:44.233Z,0
2017-01-08T06:36:53.214Z,0
2017-01-08T06:38:02.195Z,0
2017-01-08T06:39:11.182Z,0
2017-01-08T06:40:20.162Z,0
2017-01-08T06:41:29.140Z,0
2017-01-08T06:42:38.125Z,0
2017-01-08T06:43:47.100Z,0
2017-01-08T06:44:56.088Z,0
2017-01-08T06:46:05.071Z,0
2017-01-08T06:47:14.052Z,0
2017-01-08T06:48:23.035Z,0
2017-01-08T06:49:32.020Z,4
2017-01-08T06:50:40.999Z,0
2017-01-08T06:51:49.976Z,4
2017-01-08T06:52:58.955Z,4
2017-01-08T06:54:07.937Z,0
2017-01-08T06:55:16.917Z,4
2017-01-08T06:56:25.896Z,4
2017-01-08T06:57:34.879Z,8
2017-01-08T06:58:43.860Z,8
2017-01-08T06:59:52.850Z,8
2017-01-08T07:01:01.836Z,8
2017-01-08T07:02:10.836Z,8
2017-01-08T07:03:19.814Z,12
2017-01-08T07:04:28.791Z,12
2017-01-08T07:05:37.767Z,16
2017-01-08T07:06:46.748Z,16
2017-01-08T07:07:55.729Z,20
2017-01-08T07:09:04.710Z,20
2017-01-08T07:10:14.100Z,24
2017-01-08T07:11:23.088Z,24
2017-01-08T07:12:32.069Z,28
2017-01-08T07:13:41.047Z,36
2017-01-08T07:14:50.031Z,40
2017-01-08T07:15:59.009Z,44
2017-01-08T07:17:07.986Z,40
2017-01-08T07:18:16.962Z,48
2017-01-08T07:19:25.941Z,56
2017-01-08T07:20:34.926Z,64
2017-01-08T07:21:43.914Z,72
2017-01-08T07:22:52.896Z,72
2017-01-08T07:24:01.877Z,72
2017-01-08T07:25:10.856Z,72
2017-01-08T07:26:19.843Z,76
2017-01-08T07:27:28.819Z,80
2017-01-08T07:28:37.806Z,84
2017-01-08T07:29:46.792Z,88
2017-01-08T07:30:55.808Z,96
2017-01-08T07:32:04.785Z,108
2017-01-08T07:33:13.765Z,120
2017-01-08T07:34:22.744Z,128
2017-01-08T07:35:31.722Z,128
2017-01-08T07:36:40.699Z,144
2017-01-08T07:37:49.683Z,156
2017-01-08T07:38:58.664Z,156
2017-01-08T07:40:07.644Z,168
2017-01-08T07:41:16.626Z,184
2017-01-08T07:42:25.604Z,188
2017-01-08T07:43:34.590Z,200
2017-01-08T07:44:43.592Z,204
2017-01-08T07:45:52.570Z,212
2017-01-08T07:47:01.553Z,220
2017-01-08T07:48:10.535Z,232
2017-01-08T07:49:19.516Z,228
2017-01-08T07:50:28.498Z,240
2017-01-08T07:51:37.477Z,248
2017-01-08T07:52:46.458Z,252
2017-01-08T07:53:55.441Z,256
2017-01-08T07:55:04.418Z,256
2017-01-08T07:56:13.395Z,252
2017-01-08T07:57:22.378Z,260
2017-01-08T07:58:31.360Z,240
2017-01-08T07:59:40.340Z,256
2017-01-08T08:00:49.319Z,264
2017-01-08T08:01:58.298Z,252
2017-01-08T08:03:07.304Z,268
2017-01-08T08:04:16.284Z,280
2017-01-08T08:05:25.262Z,276
2017-01-08T08:06:34.240Z,284
2017-01-08T08:07:43.218Z,284
2017-01-08T08:08:52.208Z,304
2017-01-08T08:10:01.189Z,312
2017-01-08T08:11:10.170Z,304
2017-01-08T08:12:19.150Z,316
2017-01-08T08:13:28.136Z,308
2017-01-08T08:14:37.113Z,300
2017-01-08T08:15:46.093Z,308
2017-01-08T08:16:55.085Z,316
2017-01-08T08:18:04.092Z,312
2017-01-08T08:19:13.075Z,332
2017-01-08T08:20:22.058Z,340
2017-01-08T08:21:31.045Z,372
2017-01-08T08:22:40.025Z,388
2017-01-08T08:23:49.035Z,416
2017-01-08T08:24:58.016Z,436
2017-01-08T08:26:07.000Z,476
2017-01-08T08:27:15.978Z,452
2017-01-08T08:28:24.960Z,492
2017-01-08T08:29:33.969Z,560
2017-01-08T08:30:42.950Z,572
2017-01-08T08:31:51.930Z,620
2017-01-08T08:33:00.909Z,644
2017-01-08T08:34:09.887Z,656
2017-01-08T08:35:18.874Z,704
2017-01-08T08:36:27.850Z,720
2017-01-08T08:37:36.826Z,764
2017-01-08T08:38:45.804Z,736
2017-01-08T08:39:54.786Z,748
2017-01-08T08:41:03.766Z,740
2017-01-08T08:42:12.747Z,796
2017-01-08T08:43:21.729Z,840
2017-01-08T08:44:30.709Z,916
2017-01-08T08:45:39.817Z,884
2017-01-08T08:46:48.800Z,912
2017-01-08T08:47:57.782Z,944
2017-01-08T08:49:06.759Z,1020
2017-01-08T08:50:15.742Z,1016
2017-01-08T08:51:24.729Z,1036
2017-01-08T08:52:33.708Z,996
2017-01-08T08:53:42.695Z,1000
2017-01-08T08:54:51.674Z,984
2017-01-08T08:56:00.659Z,932
2017-01-08T08:57:09.633Z,932
2017-01-08T08:58:18.629Z,932
2017-01-08T08:59:27.606Z,952
2017-01-08T09:00:36.583Z,956
2017-01-08T09:01:45.565Z,956
2017-01-08T09:02:54.548Z,928
2017-01-08T09:04:03.529Z,924
2017-01-08T09:05:12.514Z,860
2017-01-08T09:06:21.497Z,844
2017-01-08T09:07:30.607Z,876
2017-01-08T09:08:39.761Z,920
2017-01-08T09:09:48.748Z,960
2017-01-08T09:10:57.732Z,936
2017-01-08T09:12:06.715Z,920
2017-01-08T09:13:15.697Z,904
2017-01-08T09:14:24.701Z,856
2017-01-08T09:15:33.681Z,852
2017-01-08T09:16:42.662Z,836
2017-01-08T09:17:51.638Z,844
2017-01-08T09:19:01.143Z,844
2017-01-08T09:20:10.127Z,876
2017-01-08T09:21:19.102Z,896
2017-01-08T09:22:28.085Z,896
2017-01-08T09:23:37.066Z,892
2017-01-08T09:24:46.048Z,928
2017-01-08T09:25:55.032Z,920
2017-01-08T09:27:04.025Z,960
2017-01-08T09:28:13.004Z,916
2017-01-08T09:29:21.981Z,916
2017-01-08T09:30:30.970Z,900
2017-01-08T09:31:39.958Z,972
2017-01-08T09:32:48.955Z,992
2017-01-08T09:33:57.958Z,992
2017-01-08T09:35:06.938Z,980
2017-01-08T09:36:16.023Z,968
2017-01-08T09:37:25.466Z,956
2017-01-08T09:38:36.016Z,944
2017-01-08T09:39:45.229Z,928
2017-01-08T09:40:54.302Z,932
2017-01-08T09:42:03.283Z,904
2017-01-08T09:43:12.434Z,928
2017-01-08T09:44:21.937Z,996
2017-01-08T09:45:30.916Z,960
2017-01-08T09:46:39.891Z,1040
2017-01-08T09:47:48.870Z,1032
2017-01-08T09:48:57.852Z,1012
2017-01-08T09:50:06.867Z,956
2017-01-08T09:51:15.847Z,988
2017-01-08T09:52:25.456Z,996
2017-01-08T09:53:35.093Z,980
2017-01-08T09:54:44.080Z,944
2017-01-08T09:55:53.065Z,944
2017-01-08T09:57:02.048Z,952
2017-01-08T09:58:12.464Z,996
2017-01-08T09:59:21.804Z,968
2017-01-08T10:00:30.801Z,880
2017-01-08T10:01:39.781Z,852
2017-01-08T10:02:48.761Z,892
2017-01-08T10:03:57.742Z,932
2017-01-08T10:05:07.884Z,892
2017-01-08T10:06:17.345Z,920
2017-01-08T10:07:28.161Z,920
2017-01-08T10:08:38.167Z,952
2017-01-08T10:09:47.150Z,948
2017-01-08T10:10:57.191Z,912
2017-01-08T10:12:07.482Z,896
2017-01-08T10:13:17.282Z,956
2017-01-08T10:14:27.488Z,1020
2017-01-08T10:15:37.886Z,1044
2017-01-08T10:16:47.514Z,1012
2017-01-08T10:17:56.868Z,1020
2017-01-08T10:19:06.188Z,1040
2017-01-08T10:20:15.174Z,1028
2017-01-08T10:21:25.585Z,1092
2017-01-08T10:22:36.034Z,1116
2017-01-08T10:23:46.474Z,1100
2017-01-08T10:24:56.118Z,1100
2017-01-08T10:26:05.794Z,1096
2017-01-08T10:27:15.111Z,1080
2017-01-08T10:28:24.456Z,1080
2017-01-08T10:29:33.616Z,1080
2017-01-08T10:30:44.314Z,1036
2017-01-08T10:31:54.395Z,1088
2017-01-08T10:33:04.360Z,1128
2017-01-08T10:34:15.412Z,1104
2017-01-08T10:35:25.374Z,1272
2017-01-08T10:36:35.059Z,1264
2017-01-08T10:37:44.819Z,1272
2017-01-08T10:38:54.294Z,1368
2017-01-08T10:40:05.541Z,1396
2017-01-08T10:41:14.849Z,1260
2017-01-08T10:42:25.121Z,1116
2017-01-08T10:43:36.012Z,1268
2017-01-08T10:44:45.738Z,1156
2017-01-08T10:45:54.996Z,1236
2017-01-08T10:47:04.886Z,1168
2017-01-08T10:48:15.452Z,1304
2017-01-08T10:49:25.839Z,1300
2017-01-08T10:50:35.549Z,1296
2017-01-08T10:51:45.398Z,1328
2017-01-08T10:52:54.397Z,1320
2017-01-08T10:54:04.178Z,1308
2017-01-08T10:55:13.156Z,1300
2017-01-08T10:56:22.239Z,1312
2017-01-08T10:57:31.228Z,1232
2017-01-08T10:58:40.376Z,1340
2017-01-08T10:59:49.783Z,1348
2017-01-08T11:00:59.565Z,1376
2017-01-08T11:02:09.135Z,1408
2017-01-08T11:03:19.084Z,1444
2017-01-08T11:04:28.069Z,1396
2017-01-08T11:05:37.068Z,1360
2017-01-08T11:06:46.425Z,1404
2017-01-08T11:07:56.071Z,1376
2017-01-08T11:09:05.089Z,1436
2017-01-08T11:10:14.068Z,1472
2017-01-08T11:11:25.372Z,1524
2017-01-08T11:12:36.533Z,1544
2017-01-08T11:13:46.519Z,1516
2017-01-08T11:14:56.488Z,1504
2017-01-08T11:16:06.149Z,1424
2017-01-08T11:17:15.529Z,1376
2017-01-08T11:18:24.511Z,1384
2017-01-08T11:19:33.496Z,1468
2017-01-08T11:20:42.477Z,1408
2017-01-08T11:21:51.462Z,1484
2017-01-08T11:23:00.944Z,1464
2017-01-08T11:24:09.941Z,1452
2017-01-08T11:25:19.279Z,1476
2017-01-08T11:26:28.256Z,1500
2017-01-08T11:27:37.237Z,1500
2017-01-08T11:28:46.220Z,1492
2017-01-08T11:29:55.388Z,1516
2017-01-08T11:31:04.738Z,1520
2017-01-08T11:32:13.730Z,1444
2017-01-08T11:33:22.732Z,1412
2017-01-08T11:34:31.721Z,1372
2017-01-08T11:35:40.703Z,1360
2017-01-08T11:36:49.706Z,1320
2017-01-08T11:37:58.684Z,1288
2017-01-08T11:39:07.661Z,1328
2017-01-08T11:40:16.640Z,1408
2017-01-08T11:41:25.624Z,1456
2017-01-08T11:42:34.718Z,1504
2017-01-08T11:43:43.862Z,1496
2017-01-08T11:44:53.878Z,1396
2017-01-08T11:46:02.865Z,1336
2017-01-08T11:47:11.854Z,1320
2017-01-08T11:48:20.935Z,1340
2017-01-08T11:49:30.722Z,1300
2017-01-08T11:50:40.313Z,1220
2017-01-08T11:51:49.348Z,1184
2017-01-08T11:52:58.353Z,1156
2017-01-08T11:54:07.333Z,1128
2017-01-08T11:55:16.310Z,1116
2017-01-08T11:56:25.298Z,1148
2017-01-08T11:57:34.286Z,1208
2017-01-08T11:58:43.278Z,1232
2017-01-08T11:59:52.285Z,1220
2017-01-08T12:01:01.264Z,1184
2017-01-08T12:02:10.243Z,1140
2017-01-08T12:03:19.230Z,1152
2017-01-08T12:04:28.215Z,1164
2017-01-08T12:05:37.203Z,1132
2017-01-08T12:06:46.425Z,1120
2017-01-08T12:07:55.795Z,1132
2017-01-08T12:09:04.781Z,1136
2017-01-08T12:10:13.765Z,1124
2017-01-08T12:11:22.749Z,1104
2017-01-08T12:12:31.732Z,1088
2017-01-08T12:13:40.715Z,1056
2017-01-08T12:14:49.698Z,1016
2017-01-08T12:15:58.691Z,992
2017-01-08T12:17:07.674Z,1008
2017-01-08T12:18:16.654Z,1032
2017-01-08T12:19:25.633Z,1044
2017-01-08T12:20:34.634Z,1056
2017-01-08T12:21:43.620Z,1076
2017-01-08T12:22:52.608Z,1092
2017-01-08T12:24:01.592Z,1088
2017-01-08T12:25:10.572Z,1092
2017-01-08T12:26:19.553Z,1088
2017-01-08T12:27:28.533Z,1080
2017-01-08T12:28:37.519Z,1084
2017-01-08T12:29:46.513Z,1092
2017-01-08T12:30:55.524Z,1096
2017-01-08T12:32:04.516Z,1092
2017-01-08T12:33:13.508Z,1072
2017-01-08T12:34:22.495Z,1068
2017-01-08T12:35:31.476Z,1080
2017-01-08T12:36:40.457Z,1096
2017-01-08T12:37:49.663Z,1104
2017-01-08T12:38:58.646Z,1084
2017-01-08T12:40:07.760Z,1096
2017-01-08T12:41:16.740Z,1152
2017-01-08T12:42:25.724Z,1204
2017-01-08T12:43:34.706Z,1220
2017-01-08T12:44:43.691Z,1204
2017-01-08T12:45:52.672Z,1188
2017-01-08T12:47:01.652Z,1184
2017-01-08T12:48:10.635Z,1164
2017-01-08T12:49:19.617Z,1164
2017-01-08T12:50:28.593Z,1180
2017-01-08T12:51:37.677Z,1188
2017-01-08T12:52:46.662Z,1160
2017-01-08T12:53:55.644Z,1104
2017-01-08T12:55:04.623Z,1116
2017-01-08T12:56:13.604Z,1116
2017-01-08T12:57:22.583Z,1108
2017-01-08T12:58:31.561Z,1092
2017-01-08T12:59:40.545Z,1052
2017-01-08T13:00:49.530Z,1012
2017-01-08T13:01:58.520Z,996
2017-01-08T13:03:07.506Z,996
2017-01-08T13:04:18.292Z,1016
2017-01-08T13:05:28.628Z,1004
2017-01-08T13:06:38.246Z,948
2017-01-08T13:07:47.467Z,884
2017-01-08T13:08:56.456Z,848
2017-01-08T13:10:05.436Z,852
2017-01-08T13:11:14.422Z,888
2017-01-08T13:12:23.405Z,896
2017-01-08T13:13:32.378Z,844
2017-01-08T13:14:41.427Z,860
2017-01-08T13:15:51.799Z,836
2017-01-08T13:17:02.389Z,784
2017-01-08T13:18:12.873Z,784
2017-01-08T13:19:22.668Z,732
2017-01-08T13:20:33.999Z,760
2017-01-08T13:21:43.650Z,728
2017-01-08T13:22:53.533Z,688
2017-01-08T13:24:02.578Z,740
2017-01-08T13:25:12.907Z,712
2017-01-08T13:26:22.545Z,664
2017-01-08T13:27:33.841Z,668
2017-01-08T13:28:43.488Z,688
2017-01-08T13:29:53.612Z,704
2017-01-08T13:31:03.498Z,720
2017-01-08T13:32:13.320Z,732
2017-01-08T13:33:22.942Z,652
2017-01-08T13:34:33.487Z,604
2017-01-08T13:35:42.826Z,600
2017-01-08T13:36:52.447Z,584
2017-01-08T13:38:01.433Z,536
2017-01-08T13:39:12.282Z,552
2017-01-08T13:40:21.977Z,580
2017-01-08T13:41:31.737Z,540
2017-01-08T13:42:41.083Z,492
2017-01-08T13:43:51.243Z,504
2017-01-08T13:45:02.129Z,544
2017-01-08T13:46:11.605Z,588
2017-01-08T13:47:21.662Z,604
2017-01-08T13:48:32.865Z,608
2017-01-08T13:49:43.438Z,624
2017-01-08T13:50:53.401Z,632
2017-01-08T13:52:03.756Z,628
2017-01-08T13:53:12.851Z,612
2017-01-08T13:54:22.431Z,588
2017-01-08T13:55:38.942Z,580
2017-01-08T13:56:51.800Z,580
2017-01-08T13:58:02.236Z,580
2017-01-08T13:59:12.697Z,588
2017-01-08T14:00:23.103Z,592
2017-01-08T14:01:33.230Z,580
2017-01-08T14:02:42.960Z,548
2017-01-08T14:03:51.940Z,520
2017-01-08T14:05:00.921Z,484
2017-01-08T14:06:09.908Z,460
2017-01-08T14:07:18.896Z,444
2017-01-08T14:08:27.872Z,432
2017-01-08T14:09:36.862Z,420
2017-01-08T14:10:45.855Z,404
2017-01-08T14:11:54.838Z,388
2017-01-08T14:13:03.819Z,368
2017-01-08T14:14:12.804Z,340
2017-01-08T14:15:21.811Z,312
2017-01-08T14:16:30.790Z,296
2017-01-08T14:17:39.768Z,292
2017-01-08T14:18:48.754Z,292
2017-01-08T14:19:57.746Z,284
2017-01-08T14:21:06.729Z,276
2017-01-08T14:22:15.712Z,276
2017-01-08T14:23:24.695Z,260
2017-01-08T14:24:33.759Z,244
2017-01-08T14:25:42.739Z,232
2017-01-08T14:26:51.725Z,228
2017-01-08T14:28:00.713Z,232
2017-01-08T14:29:09.698Z,236
2017-01-08T14:30:18.688Z,236
2017-01-08T14:31:27.674Z,236
2017-01-08T14:32:36.661Z,236
2017-01-08T14:33:45.641Z,236
2017-01-08T14:34:54.620Z,244
2017-01-08T14:36:04.017Z,240
2017-01-08T14:37:13.005Z,236
2017-01-08T14:38:21.987Z,236
2017-01-08T14:39:30.966Z,240
2017-01-08T14:40:39.948Z,240
2017-01-08T14:41:48.932Z,232
2017-01-08T14:42:57.912Z,228
2017-01-08T14:44:06.923Z,216
2017-01-08T14:45:15.905Z,200
2017-01-08T14:46:24.887Z,188
2017-01-08T14:47:33.866Z,180
2017-01-08T14:48:42.844Z,176
2017-01-08T14:49:51.821Z,176
2017-01-08T14:51:00.801Z,168
2017-01-08T14:52:09.788Z,164
2017-01-08T14:53:18.767Z,156
2017-01-08T14:54:27.746Z,152
2017-01-08T14:55:36.721Z,144
2017-01-08T14:56:45.699Z,136
2017-01-08T14:57:54.681Z,128
2017-01-08T14:59:03.656Z,120
2017-01-08T15:00:12.631Z,116
2017-01-08T15:01:21.605Z,108
2017-01-08T15:02:30.585Z,100
2017-01-08T15:03:39.571Z,92
2017-01-08T15:04:48.558Z,84
2017-01-08T15:05:57.538Z,76
2017-01-08T15:07:06.520Z,72
2017-01-08T15:08:15.505Z,68
2017-01-08T15:09:24.484Z,60
2017-01-08T15:10:33.469Z,56
2017-01-08T15:11:42.462Z,48
2017-01-08T15:12:51.468Z,44
2017-01-08T15:14:00.453Z,40
2017-01-08T15:15:09.469Z,40
2017-01-08T15:16:18.450Z,32
2017-01-08T15:17:27.433Z,28
2017-01-08T15:18:36.415Z,28
2017-01-08T15:19:45.401Z,24
2017-01-08T15:20:54.385Z,20
2017-01-08T15:22:03.373Z,20
2017-01-08T15:23:12.355Z,16
2017-01-08T15:24:21.333Z,16
2017-01-08T15:25:30.320Z,12
2017-01-08T15:26:39.300Z,12
2017-01-08T15:27:48.292Z,8
2017-01-08T15:28:57.276Z,8
2017-01-08T15:30:06.263Z,8
2017-01-08T15:31:15.268Z,8
2017-01-08T15:32:24.260Z,8
2017-01-08T15:33:33.262Z,8
2017-01-08T15:34:42.242Z,4
2017-01-08T15:35:51.223Z,4
2017-01-08T15:37:00.256Z,4
2017-01-08T15:38:09.247Z,4
2017-01-08T15:39:18.230Z,4
2017-01-08T15:40:30.039Z,0
2017-01-08T15:41:41.300Z,0
2017-01-08T15:42:51.771Z,4
2017-01-08T15:44:03.311Z,4
2017-01-08T15:45:13.104Z,0
2017-01-08T15:46:24.118Z,0
2017-01-08T15:47:35.640Z,0
2017-01-08T15:48:47.907Z,0
2017-01-08T15:49:58.425Z,0
2017-01-08T15:51:08.631Z,0
2017-01-08T15:52:19.067Z,0
2017-01-08T15:53:29.182Z,0
2017-01-08T15:54:39.563Z,0
2017-01-08T15:55:50.516Z,0
2017-01-08T15:56:59.927Z,0
2017-01-08T15:58:09.940Z,0
2017-01-08T15:59:19.149Z,0
2017-01-08T16:00:28.385Z,0
2017-01-08T16:01:40.391Z,0
2017-01-08T16:02:50.429Z,0
2017-01-08T16:04:00.075Z,0
2017-01-08T16:05:09.201Z,0
2017-01-08T16:06:18.212Z,0
2017-01-08T16:07:27.243Z,0
2017-01-08T16:08:37.580Z,0
2017-01-08T16:09:47.481Z,0
2017-01-08T16:10:57.485Z,0
2017-01-08T16:12:08.130Z,0
2017-01-08T16:13:17.754Z,0
2017-01-08T16:14:27.511Z,0
2017-01-08T16:15:37.256Z,0
2017-01-08T16:16:47.022Z,0
2017-01-08T16:17:56.470Z,0
2017-01-08T16:19:06.456Z,0
2017-01-08T16:20:16.145Z,0
2017-01-08T16:21:25.128Z,0
2017-01-08T16:22:34.116Z,0
2017-01-08T16:23:43.104Z,0
2017-01-08T16:24:52.123Z,0